Terminal Aerodrome Forecast
Issued by NWS

Home | Current Version | Previous Version | Text Only | Print | Product List | Glossary On
Versions: 1 2 3 4 5 6 7 8 9 10 11 12 13 14 15 16 17 18 19
000
FTUS43 KDLH 301700
TAFHIB
TAF
KHIB 301727Z 3018/0118 16006KT P6SM SCT200
     FM010800 VRB03KT P6SM VCSH BKN080
     FM011400 24007KT P6SM SCT035 BKN050=

USA.gov is the U.S. government's official web portal to all federal, state and local government web resources and services.